createdAt,value
2022-10-16T00:00:45.011Z,69.65
2022-10-16T00:03:52.506Z,69.49
2022-10-16T00:07:00.760Z,69.44
2022-10-16T00:10:06.694Z,69.52
2022-10-16T00:13:12.475Z,69.46
2022-10-16T00:16:19.353Z,69.44
2022-10-16T00:19:25.069Z,69.73
2022-10-16T00:22:33.591Z,69.47
2022-10-16T00:25:39.121Z,70.04
2022-10-16T00:28:46.228Z,69.37
2022-10-16T00:31:51.844Z,68.91
2022-10-16T00:34:57.447Z,69.36
2022-10-16T00:38:05.664Z,69.22
2022-10-16T00:41:15.911Z,68.56
2022-10-16T00:44:53.638Z,68.71
2022-10-16T00:48:01.042Z,68.94
2022-10-16T00:51:09.974Z,69.03
2022-10-16T00:54:25.197Z,69.27
2022-10-16T00:57:31.216Z,69.19
2022-10-16T01:00:36.735Z,69.16
2022-10-16T01:03:42.600Z,69.19
2022-10-16T01:07:06.480Z,68.89
2022-10-16T01:10:33.163Z,69.30
2022-10-16T01:13:49.267Z,69.16
2022-10-16T01:17:05.634Z,69.11
2022-10-16T01:20:24.595Z,68.54
2022-10-16T01:23:55.077Z,68.84
2022-10-16T01:27:16.540Z,68.64
2022-10-16T01:30:30.032Z,68.87
2022-10-16T01:33:46.208Z,69.06
2022-10-16T01:37:00.381Z,68.88
2022-10-16T01:40:14.927Z,68.67
2022-10-16T01:43:31.456Z,69.15
2022-10-16T01:46:43.929Z,68.89
2022-10-16T01:49:51.347Z,68.65
2022-10-16T01:53:01.938Z,68.67
2022-10-16T01:56:16.200Z,69.04
2022-10-16T01:59:30.759Z,69.01
2022-10-16T02:02:38.679Z,68.86
2022-10-16T02:05:50.879Z,68.92
2022-10-16T02:08:57.711Z,68.61
2022-10-16T02:12:13.973Z,69.50
2022-10-16T02:15:22.352Z,69.20
2022-10-16T02:18:30.387Z,68.72
2022-10-16T02:21:48.256Z,68.96
2022-10-16T02:25:02.620Z,68.44
2022-10-16T02:28:20.455Z,68.84
2022-10-16T02:31:38.416Z,68.52
2022-10-16T02:34:46.071Z,69.31
2022-10-16T02:37:54.884Z,68.85
2022-10-16T02:41:00.970Z,69.25
2022-10-16T02:44:07.079Z,69.84
2022-10-16T02:47:15.273Z,69.31
2022-10-16T02:50:21.662Z,69.81
2022-10-16T02:53:27.385Z,69.66
2022-10-16T02:56:33.565Z,69.70
2022-10-16T02:59:39.230Z,69.45
2022-10-16T03:02:48.516Z,69.54
2022-10-16T03:05:55.021Z,69.89
2022-10-16T03:09:00.682Z,69.81
2022-10-16T03:12:06.609Z,70.21
2022-10-16T03:15:13.521Z,70.09
2022-10-16T03:18:21.677Z,70.22
2022-10-16T03:21:27.240Z,70.56
2022-10-16T03:24:32.798Z,70.39
2022-10-16T03:27:38.400Z,70.63
2022-10-16T03:30:43.973Z,71.18
2022-10-16T03:33:52.275Z,71.82
2022-10-16T03:36:58.280Z,72.54
2022-10-16T03:40:04.971Z,73.34
2022-10-16T03:43:10.576Z,73.96
2022-10-16T03:46:16.192Z,73.92
2022-10-16T03:49:24.347Z,73.76
2022-10-16T03:52:30.692Z,72.98
2022-10-16T03:55:38.713Z,72.53
2022-10-16T03:58:44.433Z,72.02
2022-10-16T04:01:50.031Z,71.08
2022-10-16T04:04:58.240Z,70.29
2022-10-16T04:08:03.791Z,69.32
2022-10-16T04:11:09.734Z,69.69
2022-10-16T04:14:15.346Z,68.92
2022-10-16T04:17:20.956Z,68.17
2022-10-16T04:20:29.488Z,68.01
2022-10-16T04:23:35.921Z,67.69
2022-10-16T04:26:41.961Z,67.65
2022-10-16T04:29:47.480Z,67.53
2022-10-16T04:32:53.569Z,67.64
2022-10-16T04:36:07.043Z,68.29
2022-10-16T04:39:13.064Z,68.08
2022-10-16T04:42:18.687Z,69.04
2022-10-16T04:45:24.361Z,70.32
2022-10-16T04:48:30.222Z,71.91
2022-10-16T04:51:38.463Z,72.25
2022-10-16T04:54:46.216Z,71.96
2022-10-16T04:57:51.745Z,70.91
2022-10-16T05:00:57.728Z,70.28
2022-10-16T05:04:03.287Z,70.03
2022-10-16T05:07:11.432Z,69.68
2022-10-16T05:10:17.355Z,69.41
2022-10-16T05:13:24.368Z,68.89
2022-10-16T05:16:30.282Z,68.76
2022-10-16T05:19:35.957Z,68.12
2022-10-16T05:22:44.094Z,67.84
2022-10-16T05:25:59.457Z,67.80
2022-10-16T05:29:05.159Z,67.53
2022-10-16T05:32:10.687Z,67.45
2022-10-16T05:35:16.696Z,66.72
2022-10-16T05:38:24.919Z,67.08
2022-10-16T05:41:30.439Z,66.47
2022-10-16T05:44:36.441Z,65.43
2022-10-16T05:47:44.492Z,65.42
2022-10-16T05:50:50.065Z,65.33
2022-10-16T05:53:58.184Z,66.08
2022-10-16T05:57:03.715Z,65.57
2022-10-16T06:00:11.472Z,65.23
2022-10-16T06:03:20.177Z,65.19
2022-10-16T06:06:29.382Z,64.14
2022-10-16T06:09:39.750Z,64.11
2022-10-16T06:12:45.317Z,62.72
2022-10-16T06:15:50.890Z,62.71
2022-10-16T06:19:00.439Z,62.43
2022-10-16T06:22:15.531Z,61.53
2022-10-16T06:25:24.066Z,61.02
2022-10-16T06:28:30.275Z,59.43
2022-10-16T06:31:36.353Z,58.36
2022-10-16T06:34:47.971Z,56.53
2022-10-16T06:37:58.128Z,54.53
2022-10-16T06:41:06.881Z,53.15
2022-10-16T06:44:13.082Z,52.06
2022-10-16T06:47:37.450Z,51.68
2022-10-16T06:54:11.855Z,50.20
2022-10-16T06:57:20.421Z,49.65
2022-10-16T07:00:26.040Z,50.80
2022-10-16T07:03:31.678Z,50.12
2022-10-16T07:06:38.764Z,50.82
2022-10-16T07:09:44.759Z,49.76
2022-10-16T07:12:53.157Z,49.67
2022-10-16T07:16:00.937Z,48.81
2022-10-16T07:19:08.317Z,48.02
2022-10-16T07:22:13.974Z,47.28
2022-10-16T07:25:19.593Z,48.43
2022-10-16T07:28:27.980Z,49.56
2022-10-16T07:31:34.396Z,51.02
2022-10-16T07:34:40.622Z,52.86
2022-10-16T07:37:49.523Z,53.74
2022-10-16T07:41:02.054Z,53.67
2022-10-16T07:44:10.464Z,54.45
2022-10-16T07:47:19.320Z,54.75
2022-10-16T07:50:31.501Z,55.30
2022-10-16T07:53:41.368Z,57.36
2022-10-16T07:56:47.266Z,56.83
2022-10-16T07:59:55.432Z,57.00
2022-10-16T08:03:07.810Z,57.27
2022-10-16T08:06:16.042Z,56.67
2022-10-16T08:09:21.694Z,56.81
2022-10-16T08:12:27.296Z,56.18
2022-10-16T08:15:35.630Z,56.06
2022-10-16T08:18:43.326Z,57.22
2022-10-16T08:21:53.584Z,56.14
2022-10-16T08:25:03.513Z,57.10
2022-10-16T08:28:12.816Z,56.55
2022-10-16T08:31:21.270Z,56.81
2022-10-16T08:34:27.046Z,57.08
2022-10-16T08:37:34.504Z,56.79
2022-10-16T08:40:41.939Z,56.84
2022-10-16T08:44:29.847Z,56.71
2022-10-16T08:47:57.878Z,55.79
2022-10-16T08:51:08.499Z,55.46
2022-10-16T08:54:35.072Z,54.66
2022-10-16T08:57:40.684Z,53.95
2022-10-16T09:00:52.384Z,53.59
2022-10-16T09:04:58.346Z,54.01
2022-10-16T09:08:26.291Z,55.34
2022-10-16T09:11:51.457Z,55.15
2022-10-16T09:15:26.286Z,51.92
2022-10-16T09:18:51.309Z,51.91
2022-10-16T09:22:03.620Z,49.50
2022-10-16T09:25:19.289Z,48.95
2022-10-16T09:28:27.824Z,46.67
2022-10-16T09:31:33.773Z,44.36
2022-10-16T09:34:47.666Z,45.10
2022-10-16T09:37:59.328Z,43.69
2022-10-16T09:41:20.179Z,43.24
2022-10-16T09:44:36.384Z,43.98
2022-10-16T09:47:51.794Z,45.65
2022-10-16T09:51:03.981Z,46.07
2022-10-16T09:54:22.628Z,46.76
2022-10-16T09:57:31.300Z,46.39
2022-10-16T10:00:38.444Z,47.60
2022-10-16T10:03:49.052Z,46.93
2022-10-16T10:06:58.755Z,46.86
2022-10-16T10:10:23.768Z,46.28
2022-10-16T10:13:30.953Z,46.47
2022-10-16T10:16:39.278Z,46.61
2022-10-16T10:19:52.118Z,47.04
2022-10-16T10:22:59.135Z,47.62
2022-10-16T10:26:20.207Z,46.47
2022-10-16T10:29:49.670Z,46.94
2022-10-16T10:33:21.327Z,47.38
2022-10-16T10:36:45.670Z,47.68
2022-10-16T10:40:11.078Z,48.71
2022-10-16T10:43:45.876Z,49.39
2022-10-16T10:47:00.082Z,49.50
2022-10-16T10:50:25.863Z,50.29
2022-10-16T10:53:52.074Z,50.20
2022-10-16T10:57:06.663Z,51.47
2022-10-16T11:00:35.366Z,50.90
2022-10-16T11:04:26.258Z,50.86
2022-10-16T11:07:38.790Z,51.33
2022-10-16T11:10:57.835Z,50.85
2022-10-16T11:14:17.896Z,50.13
2022-10-16T11:17:35.848Z,49.44
2022-10-16T11:20:51.575Z,49.70
2022-10-16T11:24:08.749Z,49.49
2022-10-16T11:27:26.047Z,49.82
2022-10-16T11:30:35.348Z,49.37
2022-10-16T11:33:51.412Z,49.44
2022-10-16T11:37:09.654Z,48.59
2022-10-16T11:40:31.390Z,49.03
2022-10-16T11:43:46.636Z,49.46
2022-10-16T11:47:28.621Z,49.79
2022-10-16T11:50:42.622Z,48.83
2022-10-16T11:54:02.444Z,48.80
2022-10-16T11:57:21.777Z,48.91
2022-10-16T12:00:35.109Z,48.58
2022-10-16T12:03:52.114Z,49.53
2022-10-16T12:07:10.167Z,49.29
2022-10-16T12:10:27.415Z,48.66
2022-10-16T12:13:37.129Z,47.76
2022-10-16T12:16:55.575Z,47.08
2022-10-16T12:20:24.654Z,46.19
2022-10-16T12:23:33.118Z,44.91
2022-10-16T12:26:48.714Z,43.92
2022-10-16T12:30:02.424Z,44.31
2022-10-16T12:33:25.308Z,45.81
2022-10-16T12:36:37.278Z,46.59
2022-10-16T12:39:46.316Z,47.78
2022-10-16T12:42:51.948Z,49.15
2022-10-16T12:46:08.803Z,48.64
2022-10-16T12:49:36.874Z,48.11
2022-10-16T12:52:45.643Z,47.68
2022-10-16T12:56:10.082Z,47.15
2022-10-16T12:59:35.580Z,48.15
2022-10-16T13:03:33.159Z,48.33
2022-10-16T13:06:54.604Z,48.76
2022-10-16T13:10:22.039Z,48.87
2022-10-16T13:14:04.674Z,49.48
2022-10-16T13:17:26.226Z,49.73
2022-10-16T13:20:43.144Z,49.92
2022-10-16T13:24:05.484Z,49.91
2022-10-16T13:27:27.022Z,49.01
2022-10-16T13:30:44.686Z,48.99
2022-10-16T13:33:56.611Z,49.00
2022-10-16T13:37:02.502Z,48.66
2022-10-16T13:40:25.352Z,49.02
2022-10-16T13:43:38.201Z,48.93
2022-10-16T13:46:46.898Z,48.23
2022-10-16T13:50:05.220Z,48.60
2022-10-16T13:53:18.120Z,49.07
2022-10-16T13:56:28.750Z,49.97
2022-10-16T13:59:40.655Z,50.31
2022-10-16T14:02:56.223Z,51.75
2022-10-16T14:06:07.471Z,51.13
2022-10-16T14:09:28.141Z,50.84
2022-10-16T14:12:34.908Z,50.99
2022-10-16T14:15:42.185Z,51.24
2022-10-16T14:19:01.840Z,51.32
2022-10-16T14:22:31.099Z,52.07
2022-10-16T14:25:37.502Z,51.66
2022-10-16T14:28:45.513Z,51.83
2022-10-16T14:32:01.533Z,52.00
2022-10-16T14:35:28.941Z,52.11
2022-10-16T14:38:36.865Z,52.43
2022-10-16T14:41:50.751Z,52.96
2022-10-16T14:45:01.638Z,53.10
2022-10-16T14:48:22.075Z,53.43
2022-10-16T14:51:30.881Z,53.25
2022-10-16T14:54:36.446Z,52.99
2022-10-16T14:57:44.714Z,53.39
2022-10-16T15:00:51.591Z,54.17
2022-10-16T15:03:57.706Z,53.73
2022-10-16T15:07:06.167Z,53.83
2022-10-16T15:10:13.243Z,53.72
2022-10-16T15:13:19.243Z,53.90
2022-10-16T15:16:24.826Z,54.03
2022-10-16T15:19:30.462Z,54.34
2022-10-16T15:22:38.594Z,55.27
2022-10-16T15:25:48.876Z,56.12
2022-10-16T15:28:54.578Z,56.12
2022-10-16T15:32:00.405Z,56.42
2022-10-16T15:35:06.428Z,56.49
2022-10-16T15:38:17.630Z,56.37
2022-10-16T15:41:23.575Z,56.93
2022-10-16T15:44:31.465Z,57.24
2022-10-16T15:47:38.108Z,57.44
2022-10-16T15:50:45.598Z,57.30
2022-10-16T15:53:54.997Z,57.37
2022-10-16T15:57:00.814Z,56.76
2022-10-16T16:00:18.554Z,57.35
2022-10-16T16:03:24.238Z,58.14
2022-10-16T16:06:30.740Z,58.31
2022-10-16T16:09:39.004Z,58.70
2022-10-16T16:12:44.844Z,58.51
2022-10-16T16:15:51.100Z,58.70
2022-10-16T16:18:57.680Z,58.57
2022-10-16T16:22:03.527Z,59.12
2022-10-16T16:25:13.143Z,59.06
2022-10-16T16:28:18.679Z,59.47
2022-10-16T16:31:28.013Z,59.96
2022-10-16T16:34:35.877Z,60.16
2022-10-16T16:37:41.797Z,60.02
2022-10-16T16:40:56.630Z,59.32
2022-10-16T16:44:12.744Z,59.74
2022-10-16T16:47:20.431Z,59.22
2022-10-16T16:50:26.114Z,59.54
2022-10-16T16:53:31.846Z,58.90
2022-10-16T16:56:40.067Z,59.13
2022-10-16T16:59:45.573Z,58.94
2022-10-16T17:02:53.334Z,59.01
2022-10-16T17:06:03.727Z,59.83
2022-10-16T17:09:28.768Z,60.64
2022-10-16T17:12:57.423Z,61.21
2022-10-16T17:16:02.983Z,61.70
2022-10-16T17:19:25.642Z,61.56
2022-10-16T17:22:31.426Z,61.09
2022-10-16T17:25:39.962Z,61.21
2022-10-16T17:28:49.028Z,61.62
2022-10-16T17:31:54.658Z,61.48
2022-10-16T17:35:00.391Z,61.93
2022-10-16T17:38:22.012Z,61.68
2022-10-16T17:41:28.121Z,61.36
2022-10-16T17:44:45.032Z,61.98
2022-10-16T17:47:50.824Z,61.81
2022-10-16T17:50:58.404Z,61.74
2022-10-16T17:54:05.660Z,61.26
2022-10-16T17:57:11.806Z,61.56
2022-10-16T18:00:21.443Z,61.88
2022-10-16T18:03:33.945Z,61.50
2022-10-16T18:06:51.449Z,62.04
2022-10-16T18:10:11.129Z,61.94
2022-10-16T18:13:20.869Z,61.71
2022-10-16T18:16:39.889Z,62.52
2022-10-16T18:19:48.712Z,62.59
2022-10-16T18:22:54.565Z,63.27
2022-10-16T18:29:08.022Z,62.96
2022-10-16T18:32:18.520Z,63.47
2022-10-16T18:35:24.191Z,63.90
2022-10-16T18:38:29.990Z,63.60
2022-10-16T18:41:39.265Z,63.77
2022-10-16T18:44:46.913Z,64.44
2022-10-16T18:47:57.213Z,63.55
2022-10-16T18:51:17.069Z,63.97
2022-10-16T18:54:22.755Z,64.13
2022-10-16T18:57:36.042Z,64.88
2022-10-16T19:00:41.536Z,65.09
2022-10-16T19:03:50.419Z,65.38
2022-10-16T19:06:57.386Z,64.83
2022-10-16T19:10:03.005Z,64.76
2022-10-16T19:13:12.395Z,65.46
2022-10-16T19:16:23.212Z,65.23
2022-10-16T19:19:31.567Z,64.87
2022-10-16T19:22:49.997Z,65.10
2022-10-16T19:25:55.663Z,64.56
2022-10-16T19:29:05.287Z,64.59
2022-10-16T19:32:10.997Z,64.61
2022-10-16T19:35:19.875Z,64.65
2022-10-16T19:38:25.580Z,64.24
2022-10-16T19:41:33.455Z,64.34
2022-10-16T19:44:45.112Z,64.31
2022-10-16T19:47:51.215Z,64.68
2022-10-16T19:50:59.438Z,64.93
2022-10-16T19:54:08.845Z,65.07
2022-10-16T19:57:24.039Z,65.25
2022-10-16T20:00:29.835Z,64.45
2022-10-16T20:03:36.582Z,64.80
2022-10-16T20:06:44.882Z,64.31
2022-10-16T20:09:50.473Z,64.22
2022-10-16T20:13:02.509Z,64.24
2022-10-16T20:16:09.559Z,63.67
2022-10-16T20:19:26.666Z,64.26
2022-10-16T20:22:34.898Z,64.12
2022-10-16T20:25:42.469Z,64.25
2022-10-16T20:28:48.948Z,63.87
2022-10-16T20:31:54.708Z,64.22
2022-10-16T20:35:02.161Z,63.91
2022-10-16T20:38:26.410Z,64.44
2022-10-16T20:41:32.330Z,64.01
2022-10-16T20:44:38.352Z,64.20
2022-10-16T20:47:44.419Z,64.26
2022-10-16T20:50:50.153Z,64.40
2022-10-16T20:54:08.949Z,64.28
2022-10-16T20:57:14.699Z,64.30
2022-10-16T21:00:20.399Z,63.74
2022-10-16T21:03:26.653Z,63.71
2022-10-16T21:06:35.751Z,63.41
2022-10-16T21:09:44.429Z,63.10
2022-10-16T21:12:50.239Z,63.64
2022-10-16T21:15:56.199Z,63.71
2022-10-16T21:19:05.848Z,63.47
2022-10-16T21:22:11.753Z,62.99
2022-10-16T21:25:21.207Z,62.82
2022-10-16T21:28:27.288Z,62.94
2022-10-16T21:31:33.441Z,62.88
2022-10-16T21:34:40.157Z,63.00
2022-10-16T21:37:52.411Z,63.98
2022-10-16T21:41:00.936Z,63.74
2022-10-16T21:44:11.457Z,63.66
2022-10-16T21:47:19.363Z,63.24
2022-10-16T21:50:25.296Z,63.20
2022-10-16T21:53:44.865Z,63.51
2022-10-16T21:56:56.315Z,62.93
2022-10-16T22:00:04.352Z,63.04
2022-10-16T22:03:12.787Z,63.65
2022-10-16T22:09:30.947Z,63.47
2022-10-16T22:12:40.235Z,63.69
2022-10-16T22:15:52.960Z,64.45
2022-10-16T22:19:03.574Z,64.57
2022-10-16T22:22:09.439Z,65.19
2022-10-16T22:25:15.239Z,65.35
2022-10-16T22:28:25.615Z,65.44
2022-10-16T22:31:31.623Z,65.73
2022-10-16T22:34:37.281Z,65.11
2022-10-16T22:37:42.820Z,65.11
2022-10-16T22:40:48.621Z,65.12
2022-10-16T22:43:58.791Z,65.31
2022-10-16T22:47:04.432Z,64.93
2022-10-16T22:50:11.084Z,64.86
2022-10-16T22:53:16.700Z,64.36
2022-10-16T22:56:25.398Z,63.72
2022-10-16T22:59:33.598Z,63.74
2022-10-16T23:02:39.298Z,63.62
2022-10-16T23:05:49.654Z,63.07
2022-10-16T23:08:56.502Z,63.24
2022-10-16T23:12:02.216Z,63.65
2022-10-16T23:15:14.575Z,64.18
2022-10-16T23:18:20.270Z,64.36
2022-10-16T23:21:28.429Z,64.65
2022-10-16T23:24:34.529Z,64.54
2022-10-16T23:27:40.281Z,65.04
2022-10-16T23:30:50.660Z,65.02
2022-10-16T23:33:56.312Z,64.94
2022-10-16T23:37:03.936Z,65.23
2022-10-16T23:40:10.775Z,65.72
2022-10-16T23:43:16.335Z,65.59
2022-10-16T23:49:50.086Z,65.72
2022-10-16T23:52:55.613Z,65.23
2022-10-16T23:56:01.212Z,64.78
2022-10-16T23:59:07.273Z,64.95
